Time;durP1;ratioP1;P1;durP2;ratioP2;P2;SDS_P1;SDS_P2;PMS_P1;PMS_P2;Temp;Humidity;BMP_temperature;BMP_pressure;BME280_temperature;BME280_humidity;BME280_pressure;Samples;Min_cycle;Max_cycle;Signal;HPM_P1;HPM_P2
2022/04/30 00:01:26;;;;;;;0.60;0.60;;;5.20;99.90;;;;;;5042290;28;20034;-74
2022/04/30 00:03:52;;;;;;;0.55;0.55;;;5.20;99.90;;;;;;5041206;28;20151;-74
2022/04/30 00:06:18;;;;;;;1.33;0.98;;;5.30;99.90;;;;;;5039382;28;20578;-75
2022/04/30 00:08:43;;;;;;;0.60;0.60;;;5.30;99.90;;;;;;5028927;28;20049;-73
2022/04/30 00:11:09;;;;;;;0.63;0.63;;;5.20;99.90;;;;;;5043665;28;20041;-74
2022/04/30 00:13:37;;;;;;;0.85;0.85;;;5.40;99.90;;;;;;5044311;28;20045;-74
2022/04/30 00:16:03;;;;;;;0.60;0.60;;;5.30;99.90;;;;;;5032331;28;20061;-73
2022/04/30 00:18:28;;;;;;;0.70;0.70;;;5.20;99.90;;;;;;5032654;28;20073;-74
2022/04/30 00:20:58;;;;;;;0.60;0.60;;;5.20;99.90;;;;;;5051862;28;20095;-72
2022/04/30 00:23:24;;;;;;;0.73;0.73;;;5.20;99.90;;;;;;5052071;28;20045;-76
2022/04/30 00:25:52;;;;;;;0.63;0.63;;;5.10;99.90;;;;;;5048358;28;20036;-74
2022/04/30 00:28:25;;;;;;;0.50;0.50;;;5.10;99.90;;;;;;5050639;28;20513;-74
2022/04/30 00:30:51;;;;;;;2.38;1.23;;;5.10;99.90;;;;;;5052517;28;20148;-73
2022/04/30 00:33:17;;;;;;;1.17;0.82;;;5.10;99.90;;;;;;5051627;28;20048;-74
2022/04/30 00:35:43;;;;;;;0.60;0.60;;;5.00;99.90;;;;;;5063404;28;20056;-77
2022/04/30 00:38:11;;;;;;;0.95;0.90;;;5.00;99.90;;;;;;5051307;28;20045;-75
2022/04/30 00:40:37;;;;;;;0.63;0.63;;;5.00;99.90;;;;;;5043604;28;20120;-74
2022/04/30 00:43:03;;;;;;;0.85;0.85;;;5.00;99.90;;;;;;5046438;28;20124;-76
2022/04/30 00:45:28;;;;;;;;;;;4.90;99.90;;;;;;5054248;28;20037;-73
2022/04/30 00:47:55;;;;;;;0.50;0.50;;;4.90;99.90;;;;;;5051838;28;20489;-76
2022/04/30 00:50:21;;;;;;;0.77;0.77;;;4.90;99.90;;;;;;5043000;28;20037;-75
2022/04/30 00:52:50;;;;;;;0.70;0.70;;;4.90;99.90;;;;;;5047465;28;20048;-73
2022/04/30 00:55:21;;;;;;;0.47;0.47;;;4.90;99.90;;;;;;5051430;28;20388;-75
2022/04/30 00:57:52;;;;;;;0.70;0.70;;;4.90;99.90;;;;;;5051708;28;20044;-75
2022/04/30 01:00:18;;;;;;;0.60;0.60;;;4.80;99.90;;;;;;5049028;28;20076;-76
2022/04/30 01:02:43;;;;;;;0.60;0.60;;;4.80;99.90;;;;;;5019072;28;20147;-74
2022/04/30 01:05:10;;;;;;;0.60;0.60;;;4.80;99.90;;;;;;5036304;28;20075;-72
2022/04/30 01:07:36;;;;;;;0.60;0.60;;;4.80;99.90;;;;;;5034903;28;20530;-75
2022/04/30 01:10:03;;;;;;;2.20;2.10;;;4.80;99.90;;;;;;5040190;28;20045;-76
2022/04/30 01:12:30;;;;;;;0.70;0.70;;;4.80;99.90;;;;;;5038295;28;20076;-74
2022/04/30 01:14:57;;;;;;;0.63;0.63;;;4.90;99.90;;;;;;5040814;28;20065;-73
2022/04/30 01:17:22;;;;;;;0.80;0.80;;;4.80;99.90;;;;;;5031406;28;20052;-73
2022/04/30 01:19:49;;;;;;;0.73;0.73;;;4.90;99.90;;;;;;5025226;28;20435;-75
2022/04/30 01:22:34;;;;;;;0.65;0.65;;;4.80;99.90;;;;;;5045780;28;20044;-74
2022/04/30 01:25:02;;;;;;;0.73;0.73;;;4.70;99.90;;;;;;5039990;28;20049;-74
2022/04/30 01:27:29;;;;;;;0.60;0.60;;;4.70;99.90;;;;;;5035645;28;20048;-74
2022/04/30 01:30:04;;;;;;;0.60;0.60;;;4.70;99.90;;;;;;5035532;28;20060;-74
2022/04/30 01:38:05;;;;;;;0.65;0.65;;;4.60;99.90;;;;;;5030244;28;20060;-76
2022/04/30 01:40:31;;;;;;;;;;;4.60;99.90;;;;;;5031416;28;20467;-74
2022/04/30 01:42:59;;;;;;;0.77;0.77;;;4.60;99.90;;;;;;5043043;28;19916;-72
2022/04/30 01:45:25;;;;;;;0.50;0.50;;;4.50;99.90;;;;;;5039214;28;20424;-74
2022/04/30 01:47:54;;;;;;;0.70;0.70;;;4.50;99.90;;;;;;5037195;28;20057;-74
2022/04/30 01:50:20;;;;;;;0.60;0.60;;;4.50;99.90;;;;;;5050256;28;20067;-73
2022/04/30 01:52:47;;;;;;;0.60;0.60;;;4.50;99.90;;;;;;5047386;28;20085;-72
2022/04/30 01:55:13;;;;;;;0.50;0.50;;;4.40;99.90;;;;;;5050542;28;20391;-72
2022/04/30 01:57:43;;;;;;;0.70;0.70;;;4.40;99.90;;;;;;5049640;28;20044;-75
2022/04/30 02:00:09;;;;;;;0.50;0.50;;;4.40;99.90;;;;;;5047070;28;20037;-74
2022/04/30 02:02:36;;;;;;;0.70;0.70;;;4.40;99.90;;;;;;5032448;28;20174;-72
2022/04/30 02:05:06;;;;;;;0.60;0.60;;;4.40;99.90;;;;;;5038262;28;20033;-73
2022/04/30 02:07:37;;;;;;;0.60;0.60;;;4.40;99.90;;;;;;5034385;28;20158;-74
2022/04/30 02:10:05;;;;;;;0.63;0.63;;;4.50;99.90;;;;;;5032332;28;20092;-75
2022/04/30 02:12:32;;;;;;;0.70;0.70;;;4.50;99.90;;;;;;5033168;28;20045;-72
2022/04/30 02:14:59;;;;;;;0.50;0.50;;;4.50;99.90;;;;;;5030276;28;20069;-73
2022/04/30 02:17:28;;;;;;;0.70;0.70;;;4.70;99.90;;;;;;5029945;28;20099;-74
2022/04/30 02:22:47;;;;;;;0.50;0.50;;;4.60;99.90;;;;;;5050041;28;20041;-72
2022/04/30 02:25:14;;;;;;;0.80;0.80;;;4.60;99.90;;;;;;5045212;28;20098;-75
2022/04/30 02:27:42;;;;;;;0.60;0.60;;;4.60;99.90;;;;;;5043368;28;20060;-76
2022/04/30 02:30:14;;;;;;;0.65;0.65;;;4.60;99.90;;;;;;5045079;28;20060;-75
2022/04/30 02:32:51;;;;;;;0.68;0.68;;;4.60;99.90;;;;;;5049835;28;20052;-74
2022/04/30 02:35:23;;;;;;;0.70;0.70;;;4.50;99.90;;;;;;5060653;28;20041;-75
2022/04/30 02:37:52;;;;;;;1.35;1.35;;;4.50;99.90;;;;;;5049579;28;20524;-74
2022/04/30 02:40:20;;;;;;;0.75;0.75;;;4.40;99.90;;;;;;5049729;28;20041;-75
2022/04/30 02:42:46;;;;;;;2.65;0.93;;;4.40;99.90;;;;;;5049829;28;20057;-73
2022/04/30 02:45:12;;;;;;;;;;;4.40;99.90;;;;;;5049765;28;20483;-77
2022/04/30 02:47:40;;;;;;;0.70;0.70;;;4.40;99.90;;;;;;5050020;28;19923;-77
2022/04/30 02:50:09;;;;;;;0.82;0.82;;;4.30;99.90;;;;;;5050579;28;20892;-72
2022/04/30 02:52:36;;;;;;;0.50;0.50;;;4.40;99.90;;;;;;5049312;28;20045;-74
2022/04/30 02:55:03;;;;;;;0.73;0.73;;;4.30;99.90;;;;;;5049756;28;20045;-75
2022/04/30 02:57:39;;;;;;;0.77;0.77;;;4.30;99.90;;;;;;5047463;28;20060;-75
2022/04/30 03:00:06;;;;;;;0.50;0.50;;;4.30;99.90;;;;;;5025118;28;20069;-75
2022/04/30 03:02:32;;;;;;;0.70;0.70;;;4.30;99.90;;;;;;5029578;28;20562;-75
2022/04/30 03:04:57;;;;;;;0.52;0.52;;;4.20;99.90;;;;;;5034577;28;20112;-74
2022/04/30 03:07:24;;;;;;;0.80;0.80;;;4.10;99.90;;;;;;5034083;28;20418;-74
2022/04/30 03:09:56;;;;;;;0.60;0.60;;;4.10;99.90;;;;;;5038095;28;20059;-73
2022/04/30 03:12:22;;;;;;;0.63;0.63;;;4.00;99.90;;;;;;5015603;28;20041;-72
2022/04/30 03:14:47;;;;;;;1.00;1.00;;;4.00;99.90;;;;;;5029732;28;20053;-73
2022/04/30 03:22:41;;;;;;;0.70;0.70;;;4.20;99.90;;;;;;5035252;28;20098;-74
2022/04/30 03:25:07;;;;;;;0.70;0.70;;;4.20;99.90;;;;;;5027262;28;20041;-74
2022/04/30 03:27:34;;;;;;;0.70;0.70;;;4.20;99.90;;;;;;5032780;28;20047;-76
2022/04/30 03:29:59;;;;;;;1.35;0.80;;;4.10;99.90;;;;;;5034578;28;20103;-76
2022/04/30 03:32:25;;;;;;;0.70;0.70;;;4.20;99.90;;;;;;5029045;28;20053;-76
2022/04/30 03:34:52;;;;;;;0.70;0.70;;;4.10;99.90;;;;;;5050848;28;20131;-74
2022/04/30 03:37:18;;;;;;;0.60;0.60;;;4.10;99.90;;;;;;5028298;28;20049;-72
2022/04/30 03:39:43;;;;;;;0.70;0.70;;;4.10;99.90;;;;;;5028875;28;20067;-73
2022/04/30 03:42:09;;;;;;;0.80;0.80;;;4.00;99.90;;;;;;5035923;28;20040;-74
2022/04/30 03:44:35;;;;;;;0.80;0.80;;;4.00;99.90;;;;;;5035912;28;20091;-77
2022/04/30 03:47:01;;;;;;;0.68;0.68;;;4.00;99.90;;;;;;5053491;28;20044;-74
2022/04/30 03:49:27;;;;;;;0.60;0.60;;;4.00;99.90;;;;;;5039432;28;20474;-74
2022/04/30 03:51:54;;;;;;;0.70;0.70;;;4.00;99.90;;;;;;5036092;28;20043;-73
2022/04/30 03:54:26;;;;;;;0.65;0.65;;;4.10;99.90;;;;;;5033094;28;20124;-75
2022/04/30 03:56:51;;;;;;;0.70;0.70;;;4.10;99.90;;;;;;5022376;28;20120;-73
2022/04/30 03:59:17;;;;;;;0.77;0.77;;;4.10;99.90;;;;;;5047680;28;20041;-74
2022/04/30 04:01:43;;;;;;;0.57;0.57;;;4.10;99.90;;;;;;5032481;28;20387;-73
2022/04/30 04:04:08;;;;;;;0.70;0.70;;;4.10;99.90;;;;;;5032155;28;20394;-74
2022/04/30 04:06:34;;;;;;;0.60;0.60;;;4.10;99.90;;;;;;5040722;28;20524;-74
2022/04/30 04:08:59;;;;;;;0.70;0.70;;;3.60;99.90;;;;;;5033129;28;20517;-74
2022/04/30 04:11:26;;;;;;;0.60;0.60;;;4.20;99.90;;;;;;5028122;28;20132;-74
2022/04/30 04:19:23;;;;;;;0.60;0.60;;;4.50;99.90;;;;;;5045301;28;20529;-76
2022/04/30 04:21:50;;;;;;;0.60;0.60;;;4.60;99.90;;;;;;5029102;28;20037;-75
2022/04/30 04:27:03;;;;;;;0.60;0.60;;;4.70;99.90;;;;;;5035516;28;20156;-74
2022/04/30 04:29:29;;;;;;;;;;;4.80;99.90;;;;;;5041622;28;20042;-73
2022/04/30 04:31:55;;;;;;;0.47;0.47;;;4.80;99.90;;;;;;5032371;28;19940;-76
2022/04/30 04:34:20;;;;;;;0.70;0.70;;;4.90;99.90;;;;;;5048162;28;20079;-75
2022/04/30 04:36:46;;;;;;;0.80;0.80;;;5.00;99.90;;;;;;5038107;28;20045;-76
2022/04/30 04:39:14;;;;;;;0.80;0.80;;;5.10;99.90;;;;;;5051961;28;20431;-75
2022/04/30 04:41:42;;;;;;;0.70;0.70;;;5.20;99.90;;;;;;5053270;28;20509;-72
2022/04/30 04:44:08;;;;;;;0.60;0.60;;;5.20;99.90;;;;;;5051609;28;20049;-75
2022/04/30 04:46:35;;;;;;;0.60;0.60;;;5.50;99.90;;;;;;5051606;28;20049;-75
2022/04/30 04:49:01;;;;;;;1.20;1.20;;;5.40;99.90;;;;;;5052088;28;20067;-75
2022/04/30 04:51:28;;;;;;;0.80;0.80;;;5.50;99.90;;;;;;5052543;28;20486;-73
2022/04/30 04:53:55;;;;;;;0.60;0.60;;;5.60;99.90;;;;;;5052935;28;20493;-74
2022/04/30 04:56:21;;;;;;;0.60;0.60;;;5.70;99.90;;;;;;5050521;28;20118;-72
2022/04/30 04:58:46;;;;;;;0.52;0.52;;;5.90;99.90;;;;;;5050264;28;20071;-71
2022/04/30 05:01:12;;;;;;;1.48;1.45;;;5.90;99.90;;;;;;5047990;28;20465;-74
2022/04/30 05:03:38;;;;;;;0.60;0.60;;;6.00;99.90;;;;;;5041415;28;20036;-75
2022/04/30 05:06:04;;;;;;;0.40;0.40;;;6.10;99.90;;;;;;5044381;28;20426;-73
2022/04/30 05:08:30;;;;;;;0.68;0.68;;;6.10;99.90;;;;;;5014887;28;20037;-75
2022/04/30 05:10:55;;;;;;;0.93;0.88;;;6.20;99.90;;;;;;5027765;28;20530;-75
2022/04/30 05:13:21;;;;;;;0.60;0.60;;;6.30;99.90;;;;;;5030296;28;20107;-74
2022/04/30 05:15:47;;;;;;;0.57;0.57;;;6.40;99.90;;;;;;5014797;28;20544;-72
2022/04/30 05:18:13;;;;;;;0.70;0.70;;;6.50;99.90;;;;;;5031384;28;20125;-76
2022/04/30 05:20:39;;;;;;;0.73;0.73;;;6.50;99.90;;;;;;5030967;28;20140;-79
2022/04/30 05:23:05;;;;;;;0.70;0.70;;;6.60;99.90;;;;;;5032659;28;20041;-74
2022/04/30 05:25:31;;;;;;;0.70;0.70;;;6.70;99.90;;;;;;5038024;28;20103;-74
2022/04/30 05:27:57;;;;;;;0.63;0.63;;;6.80;99.90;;;;;;5037857;28;20604;-76
2022/04/30 05:30:23;;;;;;;0.50;0.50;;;6.90;99.90;;;;;;5033882;28;20045;-77
2022/04/30 05:32:49;;;;;;;0.73;0.73;;;7.00;99.90;;;;;;5031159;28;20077;-75
2022/04/30 05:35:15;;;;;;;0.50;0.50;;;7.00;99.90;;;;;;5052111;28;20083;-77
2022/04/30 05:37:40;;;;;;;0.70;0.70;;;7.20;99.90;;;;;;5041915;28;20405;-73
2022/04/30 05:40:07;;;;;;;0.73;0.73;;;7.20;99.90;;;;;;5065227;28;20090;-75
2022/04/30 05:42:33;;;;;;;0.40;0.40;;;7.30;99.90;;;;;;5049427;28;20125;-73
2022/04/30 05:44:59;;;;;;;0.40;0.40;;;7.40;99.90;;;;;;5051048;28;20116;-71
2022/04/30 05:47:25;;;;;;;1.40;0.68;;;7.50;99.90;;;;;;5050571;28;20052;-74
2022/04/30 05:49:50;;;;;;;0.55;0.55;;;7.60;99.90;;;;;;5050948;28;20044;-74
2022/04/30 05:52:19;;;;;;;0.57;0.57;;;7.70;99.90;;;;;;5034000;28;20073;-75
2022/04/30 05:54:45;;;;;;;0.40;0.40;;;7.80;99.90;;;;;;5050998;28;20364;-75
2022/04/30 05:57:10;;;;;;;;;;;7.90;99.90;;;;;;5050091;28;20052;-72
2022/04/30 05:59:36;;;;;;;0.40;0.40;;;8.00;99.90;;;;;;5046631;28;20258;-75
2022/04/30 06:02:02;;;;;;;0.47;0.47;;;8.20;99.90;;;;;;5040988;28;20045;-75
2022/04/30 06:04:28;;;;;;;0.40;0.40;;;8.20;99.90;;;;;;5031449;28;20541;-74
2022/04/30 06:06:54;;;;;;;1.55;1.20;;;8.30;99.90;;;;;;5040985;28;20049;-72
2022/04/30 06:09:20;;;;;;;0.70;0.70;;;8.50;99.90;;;;;;5036140;28;20037;-74
2022/04/30 06:11:47;;;;;;;;;;;8.60;99.90;;;;;;5050418;28;20052;-74
2022/04/30 06:14:13;;;;;;;0.30;0.30;;;8.70;99.90;;;;;;5033063;28;19917;-75
2022/04/30 06:16:39;;;;;;;0.88;0.88;;;8.80;99.90;;;;;;5029911;28;20489;-75
2022/04/30 06:19:04;;;;;;;0.60;0.60;;;8.90;99.90;;;;;;5047564;28;20131;-74
2022/04/30 06:21:31;;;;;;;0.60;0.60;;;9.10;99.90;;;;;;5039003;28;20049;-77
2022/04/30 06:23:57;;;;;;;0.70;0.70;;;9.20;99.90;;;;;;5027721;28;20044;-76
2022/04/30 06:26:22;;;;;;;0.73;0.73;;;9.30;99.90;;;;;;5048645;28;20041;-75
2022/04/30 06:28:49;;;;;;;0.50;0.50;;;9.50;99.90;;;;;;5033702;28;20041;-74
2022/04/30 06:31:15;;;;;;;0.82;0.75;;;9.60;99.90;;;;;;5043552;28;20045;-77
2022/04/30 06:33:41;;;;;;;0.75;0.75;;;9.70;99.90;;;;;;5049317;28;20102;-73
2022/04/30 06:36:07;;;;;;;1.23;1.13;;;9.70;99.90;;;;;;5050143;28;20044;-73
2022/04/30 06:38:33;;;;;;;0.85;0.60;;;9.80;99.90;;;;;;5050327;28;20146;-75
2022/04/30 06:40:59;;;;;;;0.50;0.50;;;9.80;99.90;;;;;;5050179;28;20041;-74
2022/04/30 06:43:25;;;;;;;1.05;0.65;;;9.90;99.90;;;;;;5048532;28;20041;-75
2022/04/30 06:45:51;;;;;;;0.40;0.40;;;9.80;99.90;;;;;;5050005;28;20048;-72
2022/04/30 06:48:17;;;;;;;0.30;0.30;;;9.80;99.90;;;;;;5049612;28;20075;-74
2022/04/30 06:50:44;;;;;;;0.40;0.40;;;9.70;99.90;;;;;;5049617;28;20051;-74
2022/04/30 06:58:42;;;;;;;0.50;0.50;;;9.80;99.90;;;;;;5047686;28;20053;-75
2022/04/30 07:03:49;;;;;;;0.43;0.43;;;9.90;99.90;;;;;;5029829;28;20045;-73
2022/04/30 07:06:16;;;;;;;0.80;0.80;;;9.90;99.90;;;;;;5039595;28;20420;-75
2022/04/30 07:08:42;;;;;;;0.40;0.40;;;10.00;99.90;;;;;;5028795;28;20053;-75
2022/04/30 07:11:08;;;;;;;0.50;0.50;;;10.10;99.90;;;;;;5042639;28;20092;-75
2022/04/30 07:13:33;;;;;;;0.30;0.30;;;10.20;99.90;;;;;;5028173;28;20048;-76
2022/04/30 07:15:59;;;;;;;0.57;0.57;;;10.30;99.90;;;;;;5034584;28;20057;-75
2022/04/30 07:18:25;;;;;;;0.57;0.57;;;10.40;99.90;;;;;;5021107;28;20405;-74
2022/04/30 07:20:53;;;;;;;0.65;0.65;;;10.50;99.90;;;;;;5032618;28;20068;-74
2022/04/30 07:23:20;;;;;;;0.70;0.70;;;10.40;99.90;;;;;;5029841;28;20045;-75
2022/04/30 07:25:45;;;;;;;0.73;0.73;;;10.40;99.90;;;;;;5015552;28;20486;-74
2022/04/30 07:28:11;;;;;;;0.32;0.32;;;10.40;99.90;;;;;;5049465;28;20056;-73
2022/04/30 07:30:37;;;;;;;0.60;0.60;;;10.40;99.90;;;;;;5046703;28;20056;-72
2022/04/30 07:33:03;;;;;;;0.50;0.50;;;10.40;99.90;;;;;;5033873;28;20053;-76
2022/04/30 07:35:29;;;;;;;0.40;0.40;;;10.30;99.90;;;;;;5055372;28;20049;-74
2022/04/30 07:37:55;;;;;;;0.50;0.50;;;10.30;99.90;;;;;;5033343;28;20067;-74
2022/04/30 07:40:20;;;;;;;0.32;0.32;;;10.20;99.90;;;;;;5034787;28;20102;-76
2022/04/30 07:42:46;;;;;;;0.30;0.30;;;10.20;99.90;;;;;;5045023;28;20127;-74
2022/04/30 07:45:12;;;;;;;0.57;0.57;;;10.10;99.90;;;;;;5033409;28;20047;-77
2022/04/30 07:47:37;;;;;;;0.32;0.32;;;10.10;99.90;;;;;;5029430;28;20379;-75
2022/04/30 07:50:04;;;;;;;0.40;0.40;;;10.00;99.90;;;;;;5033407;28;20474;-76
2022/04/30 07:52:31;;;;;;;0.50;0.50;;;10.00;99.90;;;;;;5042709;28;20049;-75
2022/04/30 07:54:57;;;;;;;0.63;0.63;;;10.00;99.90;;;;;;5040698;28;20032;-74
2022/04/30 07:57:22;;;;;;;0.30;0.30;;;10.00;99.90;;;;;;5038584;28;20049;-74
2022/04/30 07:59:48;;;;;;;0.40;0.40;;;10.00;99.90;;;;;;5050526;28;20544;-75
2022/04/30 08:02:14;;;;;;;0.50;0.50;;;10.00;99.90;;;;;;5041533;28;20051;-76
2022/04/30 08:04:39;;;;;;;0.50;0.50;;;10.00;99.90;;;;;;5034720;28;20049;-76
2022/04/30 08:07:05;;;;;;;0.47;0.47;;;10.00;99.90;;;;;;5040848;28;20102;-74
2022/04/30 08:09:31;;;;;;;0.40;0.40;;;10.00;99.90;;;;;;5036903;28;20045;-74
2022/04/30 08:11:56;;;;;;;0.50;0.50;;;10.00;99.90;;;;;;5023317;28;20383;-75
2022/04/30 08:14:22;;;;;;;0.40;0.40;;;10.00;99.90;;;;;;5034309;28;20067;-75
2022/04/30 08:16:48;;;;;;;0.50;0.50;;;10.00;99.90;;;;;;5035607;28;20139;-73
2022/04/30 08:19:15;;;;;;;0.57;0.57;;;10.10;99.90;;;;;;5033752;28;20111;-77
2022/04/30 08:21:41;;;;;;;1.10;1.10;;;10.10;99.90;;;;;;5032362;28;20394;-73
2022/04/30 08:24:06;;;;;;;0.45;0.45;;;10.20;99.90;;;;;;5030300;28;20034;-74
2022/04/30 08:26:32;;;;;;;0.40;0.40;;;10.20;99.90;;;;;;5051916;28;20037;-75
2022/04/30 08:28:58;;;;;;;1.75;1.38;;;10.30;99.90;;;;;;5038408;28;20044;-76
2022/04/30 08:31:24;;;;;;;0.82;0.82;;;10.40;99.90;;;;;;5051188;28;20067;-76
2022/04/30 08:33:51;;;;;;;0.45;0.45;;;10.60;99.90;;;;;;5055635;28;20040;-75
2022/04/30 08:36:18;;;;;;;0.40;0.40;;;10.80;99.90;;;;;;5060633;28;20068;-77
2022/04/30 08:38:44;;;;;;;0.73;0.57;;;11.00;99.90;;;;;;5051647;28;20119;-76
2022/04/30 08:41:10;;;;;;;0.40;0.40;;;11.10;99.90;;;;;;5035407;28;20464;-74
2022/04/30 08:43:39;;;;;;;0.40;0.40;;;11.20;99.90;;;;;;5037706;28;20043;-75
2022/04/30 08:46:05;;;;;;;0.45;0.45;;;11.30;99.90;;;;;;5053736;28;20051;-75
2022/04/30 08:48:32;;;;;;;0.50;0.50;;;11.40;99.90;;;;;;5053705;28;20115;-77
2022/04/30 08:50:58;;;;;;;0.43;0.43;;;11.40;99.90;;;;;;5051914;28;20049;-76
2022/04/30 08:53:24;;;;;;;0.70;0.70;;;11.50;99.90;;;;;;5051741;28;20124;-78
2022/04/30 08:55:50;;;;;;;0.50;0.50;;;11.50;99.90;;;;;;5053077;28;20049;-78
2022/04/30 08:58:16;;;;;;;0.40;0.40;;;11.70;99.90;;;;;;5051008;28;20041;-74
2022/04/30 09:00:48;;;;;;;0.40;0.40;;;11.80;99.90;;;;;;5031622;28;20084;-75
2022/04/30 09:03:21;;;;;;;0.35;0.35;;;11.90;99.90;;;;;;5039127;28;20049;-77
2022/04/30 09:05:48;;;;;;;0.50;0.50;;;11.80;99.90;;;;;;5047153;28;20045;-73
2022/04/30 09:08:16;;;;;;;0.60;0.60;;;11.80;99.90;;;;;;5043491;28;20045;-72
2022/04/30 09:10:42;;;;;;;0.50;0.50;;;11.80;99.90;;;;;;5056579;28;20063;-73
2022/04/30 09:13:14;;;;;;;0.40;0.40;;;11.60;99.90;;;;;;5034297;28;20045;-73
2022/04/30 09:15:44;;;;;;;0.40;0.40;;;11.40;99.90;;;;;;5050748;28;20134;-72
2022/04/30 09:18:12;;;;;;;0.40;0.40;;;11.40;99.90;;;;;;5051821;28;20052;-73
2022/04/30 09:20:46;;;;;;;1.08;1.08;;;11.20;99.90;;;;;;5051094;28;20064;-75
2022/04/30 09:23:26;;;;;;;0.40;0.40;;;11.10;99.90;;;;;;5051595;28;20051;-74
2022/04/30 09:25:53;;;;;;;0.60;0.60;;;11.00;99.90;;;;;;5046931;28;20033;-72
2022/04/30 09:28:28;;;;;;;0.38;0.38;;;10.90;99.90;;;;;;5039410;28;20390;-76
2022/04/30 09:31:07;;;;;;;0.90;0.90;;;10.80;99.90;;;;;;5051116;28;20049;-73
2022/04/30 09:33:35;;;;;;;3.42;0.45;;;10.80;99.90;;;;;;5054307;28;20155;-75
2022/04/30 09:38:47;;;;;;;0.30;0.30;;;10.70;99.90;;;;;;5038428;28;20426;-76
2022/04/30 09:41:13;;;;;;;0.30;0.30;;;10.70;99.90;;;;;;5051023;28;20041;-74
2022/04/30 09:43:38;;;;;;;0.30;0.30;;;10.70;99.90;;;;;;5032921;28;20429;-74
2022/04/30 09:46:06;;;;;;;0.50;0.50;;;10.60;99.90;;;;;;5050935;28;20538;-76
2022/04/30 09:54:01;;;;;;;0.30;0.30;;;10.50;99.90;;;;;;5050489;28;20502;-75
2022/04/30 09:56:36;;;;;;;0.40;0.40;;;10.40;99.90;;;;;;5051090;28;20393;-74
2022/04/30 09:59:13;;;;;;;0.40;0.40;;;10.40;99.90;;;;;;5048358;28;20051;-71
2022/04/30 10:01:39;;;;;;;;;;;10.40;99.90;;;;;;5030653;28;20481;-77
2022/04/30 10:04:07;;;;;;;0.40;0.40;;;10.40;99.90;;;;;;5030674;28;20001;-74
2022/04/30 10:06:46;;;;;;;0.50;0.50;;;10.40;99.90;;;;;;5039891;28;20288;-74
2022/04/30 10:09:24;;;;;;;0.50;0.50;;;10.50;99.90;;;;;;5031004;28;20077;-74
2022/04/30 10:12:04;;;;;;;0.40;0.40;;;10.60;99.90;;;;;;5034817;28;20041;-74
2022/04/30 10:14:36;;;;;;;0.35;0.35;;;10.70;99.90;;;;;;5043889;28;20097;-74
2022/04/30 10:17:12;;;;;;;0.30;0.30;;;10.80;99.90;;;;;;5029728;28;20484;-73
2022/04/30 10:19:41;;;;;;;0.35;0.35;;;10.80;99.90;;;;;;5024335;28;20059;-75
2022/04/30 10:22:17;;;;;;;0.43;0.43;;;10.90;99.90;;;;;;5017750;28;20057;-74
2022/04/30 10:24:50;;;;;;;0.30;0.30;;;10.90;99.90;;;;;;5021012;28;20125;-77
2022/04/30 10:27:17;;;;;;;0.30;0.30;;;10.90;99.90;;;;;;5036041;28;20418;-73
2022/04/30 10:30:10;;;;;;;0.40;0.40;;;11.00;99.90;;;;;;5037632;28;20041;-77
2022/04/30 10:32:39;;;;;;;0.40;0.40;;;11.10;99.90;;;;;;5039849;28;20086;-75
2022/04/30 10:35:05;;;;;;;0.50;0.50;;;11.10;99.90;;;;;;5037222;28;20073;-74
2022/04/30 10:37:36;;;;;;;0.50;0.50;;;11.10;99.90;;;;;;5029636;28;20514;-73
2022/04/30 10:40:08;;;;;;;0.50;0.50;;;11.00;99.90;;;;;;5013622;28;20087;-74
2022/04/30 10:42:40;;;;;;;0.40;0.40;;;11.00;99.90;;;;;;5028761;28;20116;-76
2022/04/30 10:45:12;;;;;;;0.50;0.50;;;11.70;99.90;;;;;;5029955;28;20045;-76
2022/04/30 10:47:58;;;;;;;0.30;0.30;;;11.00;99.90;;;;;;5043900;28;20375;-75
2022/04/30 10:50:24;;;;;;;0.45;0.45;;;11.10;99.90;;;;;;5050124;28;20045;-73
2022/04/30 10:52:51;;;;;;;0.47;0.47;;;11.10;99.90;;;;;;5049172;28;20049;-73
2022/04/30 10:55:19;;;;;;;0.30;0.30;;;11.20;99.90;;;;;;5049161;28;20048;-74
2022/04/30 10:57:46;;;;;;;0.30;0.30;;;11.30;99.90;;;;;;5047963;28;20120;-74
2022/04/30 11:00:13;;;;;;;0.52;0.52;;;11.30;99.90;;;;;;5046605;28;20045;-73
2022/04/30 11:02:39;;;;;;;0.40;0.40;;;11.20;99.90;;;;;;5047445;28;20049;-75
2022/04/30 11:05:16;;;;;;;0.50;0.50;;;11.30;99.90;;;;;;5001641;28;20041;-77
2022/04/30 11:07:42;;;;;;;0.73;0.70;;;11.40;99.90;;;;;;5031731;28;20049;-75
2022/04/30 11:10:08;;;;;;;0.30;0.30;;;11.50;99.90;;;;;;5040004;28;20047;-76
2022/04/30 11:12:34;;;;;;;;;;;11.50;99.90;;;;;;5031694;28;20049;-75
2022/04/30 11:15:00;;;;;;;0.40;0.40;;;11.40;99.90;;;;;;5039623;28;20011;-74
2022/04/30 11:17:26;;;;;;;0.38;0.38;;;11.30;99.90;;;;;;5036079;28;20156;-73
2022/04/30 11:19:52;;;;;;;;;;;11.30;99.90;;;;;;5049837;28;20037;-75
2022/04/30 11:22:20;;;;;;;0.47;0.47;;;11.30;99.90;;;;;;5035771;28;19921;-74
2022/04/30 11:24:45;;;;;;;1.30;1.20;;;11.40;99.90;;;;;;5048380;28;20079;-75
2022/04/30 11:27:12;;;;;;;0.45;0.45;;;11.40;99.90;;;;;;5045363;28;20045;-73
2022/04/30 11:30:08;;;;;;;0.47;0.47;;;11.60;99.90;;;;;;5038521;28;20108;-75
2022/04/30 11:32:33;;;;;;;0.40;0.40;;;11.80;99.90;;;;;;5016917;28;20052;-77
2022/04/30 11:35:03;;;;;;;0.98;0.98;;;11.90;99.90;;;;;;5052828;28;20493;-75
2022/04/30 11:37:40;;;;;;;0.50;0.50;;;11.90;99.90;;;;;;5038780;28;20126;-74
2022/04/30 11:40:06;;;;;;;;;;;12.00;99.90;;;;;;5032816;28;20043;-74
2022/04/30 11:42:32;;;;;;;0.50;0.50;;;12.30;99.90;;;;;;5048536;28;20278;-75
2022/04/30 11:44:58;;;;;;;0.30;0.30;;;12.40;99.90;;;;;;5049060;28;20045;-77
2022/04/30 11:47:24;;;;;;;0.50;0.50;;;12.50;99.90;;;;;;5029555;28;20042;-75
2022/04/30 11:50:11;;;;;;;0.60;0.60;;;12.70;99.90;;;;;;5047566;28;20044;-74
2022/04/30 11:52:37;;;;;;;0.28;0.28;;;12.70;99.90;;;;;;5048368;28;20463;-73
2022/04/30 11:55:04;;;;;;;0.40;0.40;;;12.70;99.90;;;;;;5031958;28;20154;-78
2022/04/30 11:57:32;;;;;;;0.40;0.40;;;12.80;99.90;;;;;;5047630;28;20072;-72
2022/04/30 11:59:58;;;;;;;0.60;0.60;;;13.00;99.90;;;;;;5027423;28;20046;-75
2022/04/30 12:02:24;;;;;;;0.40;0.40;;;13.10;99.90;;;;;;5045415;28;20049;-74
2022/04/30 12:04:50;;;;;;;;;;;13.20;99.90;;;;;;5039682;28;20044;-73
2022/04/30 12:07:16;;;;;;;0.30;0.30;;;13.50;99.90;;;;;;5032050;28;19955;-74
2022/04/30 12:09:51;;;;;;;;;;;13.70;99.90;;;;;;5036281;28;20048;-76
2022/04/30 12:12:22;;;;;;;0.30;0.30;;;13.70;99.90;;;;;;5049383;28;19971;-77
2022/04/30 12:14:53;;;;;;;0.40;0.40;;;13.80;99.90;;;;;;5052481;28;20044;-76
2022/04/30 12:17:30;;;;;;;0.32;0.32;;;13.80;99.90;;;;;;5052261;28;20069;-73
2022/04/30 12:26:05;;;;;;;0.40;0.40;;;14.30;99.90;;;;;;5049344;28;20055;-76
2022/04/30 12:28:45;;;;;;;0.40;0.40;;;14.10;99.90;;;;;;5051345;28;20048;-74
2022/04/30 12:31:11;;;;;;;0.40;0.40;;;13.90;99.90;;;;;;5052211;28;20049;-76
2022/04/30 12:33:46;;;;;;;0.50;0.50;;;13.70;99.90;;;;;;5051773;28;20045;-75
2022/04/30 12:36:13;;;;;;;0.60;0.60;;;13.70;99.90;;;;;;5041231;28;20106;-74
2022/04/30 12:38:39;;;;;;;0.40;0.40;;;13.60;99.90;;;;;;5050884;28;20040;-72
2022/04/30 12:41:07;;;;;;;0.25;0.25;;;13.50;99.90;;;;;;5052204;28;20387;-74
2022/04/30 12:43:36;;;;;;;0.40;0.40;;;13.40;99.90;;;;;;5014671;28;20077;-73
2022/04/30 12:46:03;;;;;;;0.50;0.50;;;13.20;99.90;;;;;;5045734;28;20116;-75
2022/04/30 12:48:33;;;;;;;0.40;0.40;;;13.20;99.90;;;;;;5027589;28;20040;-76
2022/04/30 12:50:58;;;;;;;0.43;0.43;;;13.10;99.90;;;;;;5051049;28;20033;-74
2022/04/30 12:53:24;;;;;;;0.55;0.55;;;13.00;99.90;;;;;;5051779;28;20414;-76
2022/04/30 12:55:52;;;;;;;0.75;0.75;;;12.90;99.90;;;;;;5051811;28;20065;-75
2022/04/30 12:58:18;;;;;;;0.50;0.50;;;12.90;99.90;;;;;;5050058;28;20072;-76
2022/04/30 13:00:45;;;;;;;0.40;0.40;;;12.80;99.90;;;;;;5048608;28;20088;-74
2022/04/30 13:03:12;;;;;;;0.50;0.50;;;12.60;99.90;;;;;;5039431;28;20056;-71
2022/04/30 13:05:38;;;;;;;0.32;0.32;;;12.50;99.90;;;;;;5035869;28;20441;-73
2022/04/30 13:08:04;;;;;;;0.43;0.43;;;12.40;99.90;;;;;;5042957;28;20105;-75
2022/04/30 13:13:35;;;;;;;0.40;0.40;;;12.20;99.90;;;;;;4992350;28;19917;-73
2022/04/30 13:16:07;;;;;;;0.60;0.60;;;12.10;99.90;;;;;;4993665;28;20072;-73
2022/04/30 13:18:34;;;;;;;0.40;0.40;;;12.10;99.90;;;;;;5019925;28;20073;-74
2022/04/30 13:21:02;;;;;;;0.40;0.40;;;12.10;99.90;;;;;;5025587;28;20034;-74
2022/04/30 13:23:27;;;;;;;0.55;0.50;;;12.10;99.90;;;;;;5043297;28;20400;-74
2022/04/30 13:25:53;;;;;;;0.40;0.40;;;12.10;99.90;;;;;;5049370;28;20115;-71
2022/04/30 13:28:22;;;;;;;0.63;0.63;;;12.00;99.90;;;;;;5051120;28;20035;-76
2022/04/30 13:30:48;;;;;;;0.43;0.43;;;11.90;99.90;;;;;;5012759;28;20123;-75
2022/04/30 13:33:13;;;;;;;0.35;0.35;;;11.90;99.90;;;;;;5020856;28;20456;-75
2022/04/30 13:35:40;;;;;;;0.55;0.55;;;11.70;99.90;;;;;;5048902;28;20045;-75
2022/04/30 13:38:06;;;;;;;0.40;0.40;;;11.70;99.90;;;;;;5027001;28;20033;-75
2022/04/30 13:40:32;;;;;;;0.32;0.32;;;11.70;99.90;;;;;;5047973;28;20528;-77
2022/04/30 13:42:57;;;;;;;0.63;0.63;;;11.70;99.90;;;;;;5049575;28;20041;-75
2022/04/30 13:45:24;;;;;;;0.40;0.40;;;11.60;99.90;;;;;;5033461;28;20072;-75